Box Springs, California
Current Conditions -  °F | °C
As of 11:53 PM on Sunday 23 Nov 2014 (Local Time) from KRAL Reporting Station
Clear Clear  
Wind Chill: 55°   Ceiling: Unl
Heat Index: 55°   Visibility: 10mi
Dew Point: 18°   Wind: 7mph
Humidity: 23%   Direction: 40°NE
Pressure: 30.18"   Gusts: NA
Location:  33.9841°N, 117.329°W
Report Text: KRAL 240753Z AUTO 04006KT 10SM CLR 13/M08 A3018 RMK AO2 SLP207 T01281078 402440094
Loading
Personal Weather Stations






























Interactive Weather Map New forecast layout! Learn more

10-Day Weather Forecast

Advertisements
Track Severe Weather on mobile